EPPO/POZ METAR and TAF weather

Enter ICAO airport designator
Station Type Date Time Source
EPPO METAR 2020/07/12 03:30 UTC NOAA

EPPO 120330Z 31004KT CAVOK 09/07 Q1024


Station Type Date Time Source
EPPO Decoded METAR 2020/07/12 03:30 UTC NOAA

Poznan, Poland (EPPO) 52-25N 016-50E 92M
Jul 11, 2020 - 11:30 PM EDT / 2020.07.12 0330 UTC
Wind: from the NW (310 degrees) at 5 MPH (4 KT):0
Visibility: greater than 7 mile(s):0
Temperature: 48 F (9 C)
Dew Point: 44 F (7 C)
Relative Humidity: 87%
Pressure (altimeter): 30.24 in. Hg (1024 hPa)
ob: EPPO 120330Z 31004KT CAVOK 09/07 Q1024
cycle: 3

Station Type Date Time Source
EPPO TAF 2020/07/11 18:33 UTC NOAA

TAF EPPO 111730Z 1118/1218 30004KT CAVOK
BECMG 1206/1209 31014KT

Example: see airport list